createdAt,value
2018-09-11T00:00:59.609Z,2.10
2018-09-11T00:03:27.063Z,1.70
2018-09-11T00:05:54.526Z,2.27
2018-09-11T00:08:22.013Z,1.60
2018-09-11T00:10:49.568Z,2.00
2018-09-11T00:13:17.023Z,1.63
2018-09-11T00:15:44.487Z,1.60
2018-09-11T00:18:11.943Z,1.80
2018-09-11T00:20:39.398Z,2.17
2018-09-11T00:23:06.867Z,1.90
2018-09-11T00:25:34.323Z,2.03
2018-09-11T00:28:01.801Z,1.80
2018-09-11T00:30:29.271Z,1.80
2018-09-11T00:32:57.498Z,1.60
2018-09-11T00:35:24.960Z,1.93
2018-09-11T00:37:52.415Z,1.50
2018-09-11T00:40:19.928Z,1.70
2018-09-11T00:42:47.386Z,1.97
2018-09-11T00:45:14.853Z,1.93
2018-09-11T00:47:42.417Z,2.10
2018-09-11T00:50:09.889Z,1.53
2018-09-11T00:52:37.440Z,1.67
2018-09-11T00:55:04.895Z,2.47
2018-09-11T00:57:32.367Z,1.97
2018-09-11T00:59:59.932Z,2.03
2018-09-11T01:02:27.415Z,1.50
2018-09-11T01:04:54.869Z,2.17
2018-09-11T01:07:22.349Z,1.83
2018-09-11T01:09:50.597Z,1.87
2018-09-11T01:12:18.261Z,1.93
2018-09-11T01:14:45.725Z,2.20
2018-09-11T01:17:13.180Z,2.23
2018-09-11T01:19:40.843Z,1.70
2018-09-11T01:22:08.309Z,1.83
2018-09-11T01:24:36.520Z,2.00
2018-09-11T01:27:04.771Z,2.23
2018-09-11T01:29:32.335Z,1.53
2018-09-11T01:31:59.817Z,1.67
2018-09-11T01:34:27.277Z,1.60
2018-09-11T01:36:54.735Z,1.67
2018-09-11T01:39:22.193Z,1.83
2018-09-11T01:41:49.659Z,1.50
2018-09-11T01:44:17.115Z,1.83
2018-09-11T01:46:44.675Z,1.97
2018-09-11T01:49:12.899Z,1.77
2018-09-11T01:51:40.354Z,1.97
2018-09-11T01:54:08.572Z,1.90
2018-09-11T01:56:36.263Z,1.57
2018-09-11T01:59:03.745Z,1.80
2018-09-11T02:01:31.195Z,1.60
2018-09-11T02:03:58.662Z,2.63
2018-09-11T02:06:27.622Z,1.87
2018-09-11T02:08:55.109Z,1.97
2018-09-11T02:11:22.672Z,2.47
2018-09-11T02:13:50.231Z,1.90
2018-09-11T02:16:17.909Z,2.37
2018-09-11T02:18:45.358Z,1.90
2018-09-11T02:21:12.832Z,1.57
2018-09-11T02:23:40.438Z,1.90
2018-09-11T02:26:08.651Z,1.60
2018-09-11T02:28:36.094Z,1.80
2018-09-11T02:31:03.794Z,1.50
2018-09-11T02:33:31.354Z,2.47
2018-09-11T02:35:58.812Z,1.87
2018-09-11T02:38:26.297Z,1.70
2018-09-11T02:40:53.858Z,2.07
2018-09-11T02:43:21.411Z,1.80
2018-09-11T02:45:48.975Z,1.63
2018-09-11T02:48:16.542Z,1.97
2018-09-11T02:50:43.992Z,1.90
2018-09-11T02:53:11.467Z,1.80
2018-09-11T02:55:38.931Z,1.63
2018-09-11T02:58:06.380Z,1.57
2018-09-11T03:00:33.854Z,1.60
2018-09-11T03:03:01.323Z,1.57
2018-09-11T03:05:28.887Z,1.77
2018-09-11T03:07:56.463Z,1.80
2018-09-11T03:10:23.919Z,2.03
2018-09-11T03:12:51.372Z,1.70
2018-09-11T03:15:18.836Z,2.33
2018-09-11T03:17:46.292Z,1.60
2018-09-11T03:20:13.758Z,1.50
2018-09-11T03:22:41.199Z,1.80
2018-09-11T03:25:28.354Z,2.00
2018-09-11T03:27:55.832Z,2.00
2018-09-11T03:30:24.413Z,1.80
2018-09-11T03:32:52.059Z,1.87
2018-09-11T03:35:19.528Z,2.07
2018-09-11T03:37:46.981Z,1.87
2018-09-11T03:40:14.443Z,1.93
2018-09-11T03:42:41.896Z,3.40
2018-09-11T03:47:50.036Z,1.70
2018-09-11T03:50:17.499Z,1.97
2018-09-11T03:52:45.065Z,1.90
2018-09-11T03:55:12.531Z,1.63
2018-09-11T03:57:39.997Z,1.53
2018-09-11T04:00:07.464Z,1.77
2018-09-11T04:02:34.927Z,1.53
2018-09-11T04:05:08.601Z,1.60
2018-09-11T04:07:36.069Z,2.20
2018-09-11T04:10:03.540Z,1.60
2018-09-11T04:12:31.106Z,1.83
2018-09-11T04:14:58.573Z,1.83
2018-09-11T04:17:26.119Z,1.90
2018-09-11T04:19:53.687Z,1.80
2018-09-11T04:22:21.147Z,1.50
2018-09-11T04:24:48.709Z,1.80
2018-09-11T04:27:16.276Z,2.00
2018-09-11T04:29:43.843Z,1.87
2018-09-11T04:32:11.412Z,1.93
2018-09-11T04:34:38.877Z,1.70
2018-09-11T04:37:06.335Z,1.57
2018-09-11T04:39:33.805Z,1.90
2018-09-11T04:42:01.273Z,1.47
2018-09-11T04:44:28.831Z,1.90
2018-09-11T04:46:56.292Z,1.97
2018-09-11T04:49:23.764Z,1.80
2018-09-11T04:51:51.311Z,1.80
2018-09-11T04:54:18.862Z,1.80
2018-09-11T04:56:46.343Z,1.90
2018-09-11T04:59:13.797Z,1.93
2018-09-11T05:01:41.459Z,1.73
2018-09-11T05:04:08.911Z,2.00
2018-09-11T05:06:36.383Z,1.87
2018-09-11T05:09:03.844Z,1.70
2018-09-11T05:11:31.318Z,2.17
2018-09-11T05:13:58.878Z,1.77
2018-09-11T05:16:26.332Z,1.67
2018-09-11T05:18:53.902Z,1.70
2018-09-11T05:21:21.569Z,1.80
2018-09-11T05:23:49.175Z,1.70
2018-09-11T05:26:16.694Z,1.80
2018-09-11T05:28:44.153Z,1.63
2018-09-11T05:31:11.604Z,1.67
2018-09-11T05:33:39.089Z,1.43
2018-09-11T05:36:06.644Z,1.60
2018-09-11T05:38:34.104Z,2.53
2018-09-11T05:41:01.556Z,2.00
2018-09-11T05:43:29.033Z,1.60
2018-09-11T05:45:56.596Z,1.47
2018-09-11T05:48:24.173Z,1.60
2018-09-11T05:50:51.734Z,1.77
2018-09-11T05:53:19.294Z,1.63
2018-09-11T05:55:46.748Z,1.90
2018-09-11T05:58:14.264Z,2.87
2018-09-11T06:00:41.659Z,1.50
2018-09-11T06:03:09.128Z,1.87
2018-09-11T06:05:36.834Z,1.77
2018-09-11T06:08:04.266Z,2.10
2018-09-11T06:10:32.630Z,1.90
2018-09-11T06:13:00.117Z,2.07
2018-09-11T06:15:27.563Z,2.20
2018-09-11T06:17:55.123Z,2.10
2018-09-11T06:20:22.583Z,1.70
2018-09-11T06:22:50.047Z,2.13
2018-09-11T06:25:17.523Z,2.27
2018-09-11T06:27:45.085Z,2.60
2018-09-11T06:30:12.540Z,1.90
2018-09-11T06:32:40.112Z,1.93
2018-09-11T06:35:08.013Z,1.97
2018-09-11T06:37:36.263Z,2.20
2018-09-11T06:40:03.719Z,2.00
2018-09-11T06:42:31.295Z,2.20
2018-09-11T06:44:58.747Z,1.90
2018-09-11T06:47:26.227Z,1.87
2018-09-11T06:49:53.678Z,2.17
2018-09-11T06:52:21.236Z,2.10
2018-09-11T06:54:48.762Z,1.97
2018-09-11T06:57:16.180Z,1.97
2018-09-11T06:59:43.641Z,2.27
2018-09-11T07:02:12.724Z,2.00
2018-09-11T07:04:40.175Z,2.20
2018-09-11T07:07:07.636Z,1.93
2018-09-11T07:09:35.107Z,2.17
2018-09-11T07:12:06.457Z,2.27
2018-09-11T07:14:33.923Z,2.30
2018-09-11T07:17:01.382Z,2.13
2018-09-11T07:19:28.900Z,2.17
2018-09-11T07:21:56.295Z,2.10
2018-09-11T07:24:23.764Z,2.60
2018-09-11T07:26:51.216Z,2.50
2018-09-11T07:29:18.676Z,2.10
2018-09-11T07:31:46.149Z,2.53
2018-09-11T07:34:13.608Z,2.27
2018-09-11T07:36:41.072Z,2.60
2018-09-11T07:39:08.544Z,2.30
2018-09-11T07:41:36.214Z,2.17
2018-09-11T07:44:03.675Z,2.20
2018-09-11T07:46:31.131Z,2.57
2018-09-11T07:48:58.580Z,2.60
2018-09-11T07:51:26.041Z,3.20
2018-09-11T07:53:53.546Z,2.63
2018-09-11T07:56:21.096Z,3.33
2018-09-11T07:58:48.647Z,2.70
2018-09-11T08:01:16.216Z,2.73
2018-09-11T08:03:43.675Z,2.70
2018-09-11T08:06:11.132Z,3.00
2018-09-11T08:08:38.867Z,2.83
2018-09-11T08:11:06.367Z,2.80
2018-09-11T08:13:33.835Z,2.50
2018-09-11T08:16:01.304Z,3.00
2018-09-11T08:18:28.753Z,2.50
2018-09-11T08:20:56.207Z,2.90
2018-09-11T08:23:23.672Z,2.90
2018-09-11T08:25:51.129Z,2.67
2018-09-11T08:28:18.815Z,2.93
2018-09-11T08:30:46.371Z,2.27
2018-09-11T08:33:13.824Z,2.77
2018-09-11T08:35:41.291Z,2.47
2018-09-11T08:38:08.755Z,2.70
2018-09-11T08:40:36.211Z,2.80
2018-09-11T08:43:03.671Z,2.83
2018-09-11T08:45:31.151Z,2.47
2018-09-11T08:47:58.712Z,2.37
2018-09-11T08:50:26.160Z,2.43
2018-09-11T08:52:53.681Z,2.27
2018-09-11T08:55:21.207Z,2.33
2018-09-11T08:57:48.661Z,2.30
2018-09-11T09:00:16.108Z,2.47
2018-09-11T09:02:43.563Z,2.80
2018-09-11T09:05:11.028Z,2.13
2018-09-11T09:07:38.505Z,2.43
2018-09-11T09:10:06.090Z,2.30
2018-09-11T09:12:33.623Z,2.53
2018-09-11T09:15:01.203Z,2.43
2018-09-11T09:17:28.667Z,2.57
2018-09-11T09:19:56.113Z,2.43
2018-09-11T09:22:23.787Z,2.70
2018-09-11T09:24:51.345Z,2.60
2018-09-11T09:27:18.803Z,2.40
2018-09-11T09:29:46.267Z,2.50
2018-09-11T09:32:13.735Z,2.80
2018-09-11T09:34:41.199Z,2.73
2018-09-11T09:37:08.692Z,2.73
2018-09-11T09:39:36.930Z,2.63
2018-09-11T09:42:04.377Z,2.00
2018-09-11T09:44:31.848Z,2.13
2018-09-11T09:46:59.323Z,2.20
2018-09-11T09:49:27.607Z,2.70
2018-09-11T09:51:55.073Z,2.10
2018-09-11T09:54:22.520Z,2.37
2018-09-11T09:56:50.064Z,2.83
2018-09-11T09:59:17.562Z,2.57
2018-09-11T10:01:45.030Z,2.27
2018-09-11T10:04:12.606Z,2.30
2018-09-11T10:06:40.159Z,2.47
2018-09-11T10:09:07.594Z,3.00
2018-09-11T10:11:35.079Z,2.17
2018-09-11T10:14:02.641Z,2.30
2018-09-11T10:16:30.198Z,2.63
2018-09-11T10:18:57.657Z,2.77
2018-09-11T10:21:25.133Z,2.60
2018-09-11T10:23:52.590Z,2.30
2018-09-11T10:26:20.160Z,1.90
2018-09-11T10:28:47.611Z,2.10
2018-09-11T10:31:15.088Z,2.93
2018-09-11T10:33:42.606Z,2.50
2018-09-11T10:36:10.145Z,2.60
2018-09-11T10:38:38.363Z,1.90
2018-09-11T10:41:05.843Z,2.60
2018-09-11T10:43:33.411Z,2.00
2018-09-11T10:46:01.092Z,2.17
2018-09-11T10:48:28.649Z,2.07
2018-09-11T10:50:56.109Z,2.30
2018-09-11T10:53:23.571Z,2.17
2018-09-11T10:55:51.026Z,2.37
2018-09-11T10:58:18.629Z,2.10
2018-09-11T11:00:46.071Z,2.20
2018-09-11T11:03:13.532Z,2.23
2018-09-11T11:05:40.996Z,2.43
2018-09-11T11:08:08.561Z,2.57
2018-09-11T11:10:36.012Z,2.20
2018-09-11T11:13:03.569Z,2.47
2018-09-11T11:15:31.032Z,2.20
2018-09-11T11:17:58.490Z,2.20
2018-09-11T11:20:25.947Z,2.70
2018-09-11T11:22:53.419Z,2.20
2018-09-11T11:25:20.862Z,2.13
2018-09-11T11:27:48.311Z,2.20
2018-09-11T11:30:15.813Z,2.43
2018-09-11T11:32:44.823Z,2.40
2018-09-11T11:35:12.272Z,2.57
2018-09-11T11:37:39.827Z,2.20
2018-09-11T11:40:07.486Z,2.00
2018-09-11T11:42:35.076Z,2.30
2018-09-11T11:45:02.538Z,2.20
2018-09-11T11:47:30.011Z,2.10
2018-09-11T11:49:58.478Z,2.17
2018-09-11T11:52:25.926Z,2.90
2018-09-11T11:54:53.383Z,2.70
2018-09-11T11:57:21.070Z,2.17
2018-09-11T11:59:48.515Z,2.73
2018-09-11T12:02:15.981Z,2.20
2018-09-11T12:04:43.561Z,2.80
2018-09-11T12:07:11.032Z,2.50
2018-09-11T12:09:39.698Z,2.80
2018-09-11T12:12:07.182Z,2.50
2018-09-11T12:14:34.641Z,2.23
2018-09-11T12:17:02.146Z,2.60
2018-09-11T12:19:29.657Z,2.30
2018-09-11T12:21:57.423Z,2.20
2018-09-11T12:24:24.879Z,2.70
2018-09-11T12:26:52.463Z,2.70
2018-09-11T12:29:20.020Z,2.93
2018-09-11T12:31:47.472Z,2.60
2018-09-11T12:34:15.040Z,2.60
2018-09-11T12:36:42.600Z,2.63
2018-09-11T12:39:10.048Z,2.60
2018-09-11T12:41:37.533Z,2.57
2018-09-11T12:44:04.990Z,3.23
2018-09-11T12:46:32.897Z,2.37
2018-09-11T12:49:00.018Z,2.73
2018-09-11T12:51:27.581Z,2.90
2018-09-11T12:53:55.143Z,2.27
2018-09-11T12:56:22.700Z,2.53
2018-09-11T12:58:50.162Z,2.60
2018-09-11T13:01:17.617Z,3.03
2018-09-11T13:03:45.200Z,3.00
2018-09-11T13:06:12.765Z,2.50
2018-09-11T13:08:40.232Z,3.27
2018-09-11T13:11:07.692Z,2.77
2018-09-11T13:13:35.145Z,3.30
2018-09-11T13:16:02.608Z,2.50
2018-09-11T13:18:30.061Z,2.60
2018-09-11T13:20:57.515Z,2.67
2018-09-11T13:23:24.975Z,2.90
2018-09-11T13:25:52.448Z,2.83
2018-09-11T13:28:19.916Z,3.00
2018-09-11T13:30:47.380Z,2.87
2018-09-11T13:33:14.845Z,3.10
2018-09-11T13:35:42.291Z,3.23
2018-09-11T13:38:09.773Z,3.10
2018-09-11T13:40:37.239Z,2.87
2018-09-11T13:43:04.704Z,2.80
2018-09-11T13:45:32.261Z,2.93
2018-09-11T13:47:59.724Z,2.80
2018-09-11T13:50:27.287Z,2.73
2018-09-11T13:52:54.900Z,2.53
2018-09-11T13:55:22.306Z,2.93
2018-09-11T13:57:49.983Z,2.80
2018-09-11T14:00:17.445Z,2.87
2018-09-11T14:02:45.080Z,3.10
2018-09-11T14:05:12.471Z,3.03
2018-09-11T14:07:40.132Z,3.10
2018-09-11T14:10:07.695Z,3.27
2018-09-11T14:12:35.153Z,3.27
2018-09-11T14:15:02.716Z,3.07
2018-09-11T14:17:30.167Z,2.70
2018-09-11T14:19:57.644Z,2.87
2018-09-11T14:22:25.203Z,3.00
2018-09-11T14:24:52.662Z,2.63
2018-09-11T14:27:20.120Z,2.93
2018-09-11T14:29:47.582Z,2.90
2018-09-11T14:32:15.035Z,3.10
2018-09-11T14:34:42.566Z,3.03
2018-09-11T14:37:09.980Z,3.57
2018-09-11T14:39:37.543Z,3.23
2018-09-11T14:42:04.995Z,3.00
2018-09-11T14:44:32.456Z,2.97
2018-09-11T14:46:59.912Z,3.43
2018-09-11T14:49:27.388Z,2.77
2018-09-11T14:51:54.852Z,2.97
2018-09-11T14:54:22.443Z,4.00
2018-09-11T14:56:50.700Z,2.90
2018-09-11T14:59:18.153Z,2.97
2018-09-11T15:01:45.827Z,3.03
2018-09-11T15:04:13.334Z,3.00
2018-09-11T15:06:40.757Z,3.00
2018-09-11T15:09:08.384Z,3.03
2018-09-11T15:11:35.780Z,2.90
2018-09-11T15:14:03.240Z,2.90
2018-09-11T15:16:30.716Z,2.93
2018-09-11T15:18:58.174Z,3.30
2018-09-11T15:21:25.639Z,3.23
2018-09-11T15:23:53.086Z,2.57
2018-09-11T15:26:20.540Z,2.80
2018-09-11T15:28:47.999Z,3.17
2018-09-11T15:31:15.464Z,2.87
2018-09-11T15:33:42.923Z,2.80
2018-09-11T15:36:10.382Z,2.90
2018-09-11T15:38:37.827Z,3.23
2018-09-11T15:41:05.323Z,2.73
2018-09-11T15:43:32.887Z,2.93
2018-09-11T15:46:00.412Z,3.50
2018-09-11T15:48:27.866Z,3.00
2018-09-11T15:50:55.315Z,3.37
2018-09-11T15:53:23.548Z,2.53
2018-09-11T15:55:51.071Z,3.17
2018-09-11T15:58:18.482Z,3.20
2018-09-11T16:00:45.952Z,3.07
2018-09-11T16:03:13.408Z,3.33
2018-09-11T16:05:40.869Z,2.90
2018-09-11T16:08:08.320Z,3.67
2018-09-11T16:10:35.850Z,3.50
2018-09-11T16:13:03.349Z,3.50
2018-09-11T16:15:30.808Z,3.30
2018-09-11T16:17:58.381Z,3.20
2018-09-11T16:20:25.939Z,3.17
2018-09-11T16:22:53.513Z,3.57
2018-09-11T16:25:21.076Z,3.33
2018-09-11T16:27:48.534Z,3.33
2018-09-11T16:30:16.153Z,3.37
2018-09-11T16:32:43.466Z,3.20
2018-09-11T16:35:10.936Z,3.33
2018-09-11T16:37:38.583Z,3.70
2018-09-11T16:40:06.073Z,3.30
2018-09-11T16:42:33.634Z,3.87
2018-09-11T16:45:01.099Z,3.43
2018-09-11T16:47:28.644Z,3.60
2018-09-11T16:49:56.111Z,3.07
2018-09-11T16:52:23.577Z,3.30
2018-09-11T16:54:52.541Z,3.30
2018-09-11T16:57:20.025Z,3.27
2018-09-11T16:59:47.489Z,2.97
2018-09-11T17:02:16.113Z,3.37
2018-09-11T17:04:43.540Z,3.00
2018-09-11T17:07:11.105Z,3.33
2018-09-11T17:09:38.567Z,3.60
2018-09-11T17:12:06.016Z,3.30
2018-09-11T17:14:33.494Z,3.73
2018-09-11T17:17:00.968Z,3.63
2018-09-11T17:19:28.441Z,3.77
2018-09-11T17:21:56.676Z,4.67
2018-09-11T17:24:24.155Z,3.10
2018-09-11T17:26:51.608Z,3.80
2018-09-11T17:29:19.280Z,4.30
2018-09-11T17:31:46.746Z,4.33
2018-09-11T17:34:14.259Z,4.27
2018-09-11T17:36:41.733Z,3.40
2018-09-11T17:39:09.199Z,3.73
2018-09-11T17:41:36.691Z,3.40
2018-09-11T17:44:04.149Z,4.33
2018-09-11T17:46:31.626Z,4.03
2018-09-11T17:48:59.197Z,3.87
2018-09-11T17:51:26.660Z,3.47
2018-09-11T17:53:54.128Z,3.37
2018-09-11T17:56:21.603Z,3.63
2018-09-11T17:58:49.863Z,3.77
2018-09-11T18:01:17.337Z,3.43
2018-09-11T18:03:45.568Z,3.30
2018-09-11T18:06:13.084Z,3.57
2018-09-11T18:08:40.604Z,3.27
2018-09-11T18:11:08.792Z,3.70
2018-09-11T18:13:36.257Z,3.03
2018-09-11T18:16:03.714Z,3.50
2018-09-11T18:18:31.194Z,3.33
2018-09-11T18:20:58.680Z,3.77
2018-09-11T18:23:26.899Z,3.53
2018-09-11T18:25:54.398Z,3.57
2018-09-11T18:28:21.952Z,3.33
2018-09-11T18:30:49.561Z,3.57
2018-09-11T18:33:17.996Z,3.27
2018-09-11T18:35:45.463Z,3.43
2018-09-11T18:38:12.935Z,4.90
2018-09-11T18:40:40.401Z,3.87
2018-09-11T18:43:08.068Z,3.40
2018-09-11T18:45:35.507Z,3.43
2018-09-11T18:48:02.964Z,3.73
2018-09-11T18:50:30.652Z,3.50
2018-09-11T18:52:58.104Z,3.27
2018-09-11T18:55:26.395Z,3.40
2018-09-11T18:57:53.966Z,3.40
2018-09-11T19:00:21.416Z,3.97
2018-09-11T19:02:48.877Z,3.77
2018-09-11T19:05:16.439Z,3.33
2018-09-11T19:07:43.897Z,3.70
2018-09-11T19:10:11.467Z,3.93
2018-09-11T19:12:38.970Z,3.50
2018-09-11T19:15:06.394Z,3.43
2018-09-11T19:17:33.970Z,3.90
2018-09-11T19:20:01.526Z,3.10
2018-09-11T19:22:28.893Z,3.50
2018-09-11T19:24:57.170Z,3.07
2018-09-11T19:27:24.633Z,2.80
2018-09-11T19:29:52.104Z,3.60
2018-09-11T19:32:19.564Z,3.10
2018-09-11T19:34:47.125Z,3.30
2018-09-11T19:37:14.584Z,3.47
2018-09-11T19:39:42.134Z,2.97
2018-09-11T19:42:09.727Z,2.60
2018-09-11T19:44:37.260Z,2.97
2018-09-11T19:47:04.753Z,3.13
2018-09-11T19:49:32.303Z,3.33
2018-09-11T19:51:59.911Z,3.27
2018-09-11T19:54:27.306Z,2.97
2018-09-11T19:56:54.781Z,2.93
2018-09-11T19:59:22.275Z,3.37
2018-09-11T20:01:50.528Z,3.27
2018-09-11T20:04:17.996Z,3.07
2018-09-11T20:06:46.221Z,2.80
2018-09-11T20:09:13.697Z,2.90
2018-09-11T20:11:41.188Z,3.00
2018-09-11T20:14:08.747Z,3.10
2018-09-11T20:16:36.221Z,3.37
2018-09-11T20:19:03.673Z,3.00
2018-09-11T20:21:31.136Z,3.13
2018-09-11T20:23:58.619Z,3.30
2018-09-11T20:26:26.070Z,2.50
2018-09-11T20:28:53.624Z,2.77
2018-09-11T20:31:21.077Z,3.00
2018-09-11T20:33:48.548Z,3.20
2018-09-11T20:36:16.023Z,3.10
2018-09-11T20:38:43.487Z,3.47
2018-09-11T20:41:10.939Z,2.90
2018-09-11T20:43:38.404Z,3.10
2018-09-11T20:46:05.863Z,3.03
2018-09-11T20:48:33.321Z,3.47
2018-09-11T20:51:00.783Z,3.00
2018-09-11T20:53:28.240Z,2.97
2018-09-11T20:55:55.752Z,2.80
2018-09-11T20:58:23.204Z,3.30
2018-09-11T21:00:51.456Z,3.27
2018-09-11T21:03:19.027Z,3.17
2018-09-11T21:05:46.591Z,3.10
2018-09-11T21:08:14.209Z,3.30
2018-09-11T21:10:41.671Z,3.70
2018-09-11T21:13:09.146Z,2.87
2018-09-11T21:15:36.596Z,3.47
2018-09-11T21:18:04.058Z,3.40
2018-09-11T21:20:31.531Z,3.00
2018-09-11T21:22:59.239Z,3.10
2018-09-11T21:25:26.716Z,4.20
2018-09-11T21:27:54.977Z,2.97
2018-09-11T21:30:22.445Z,3.30
2018-09-11T21:32:51.439Z,2.90
2018-09-11T21:35:18.997Z,2.57
2018-09-11T21:37:46.461Z,2.87
2018-09-11T21:40:13.929Z,2.97
2018-09-11T21:42:42.148Z,4.27
2018-09-11T21:45:09.619Z,2.80
2018-09-11T21:47:37.079Z,2.83
2018-09-11T21:50:04.527Z,2.87
2018-09-11T21:52:32.751Z,2.60
2018-09-11T21:55:00.204Z,2.80
2018-09-11T21:57:27.661Z,2.90
2018-09-11T21:59:55.327Z,2.97
2018-09-11T22:02:22.823Z,2.77
2018-09-11T22:04:50.382Z,2.63
2018-09-11T22:07:18.059Z,3.07
2018-09-11T22:09:45.619Z,3.13
2018-09-11T22:12:13.088Z,2.80
2018-09-11T22:14:40.739Z,3.10
2018-09-11T22:17:08.307Z,3.20
2018-09-11T22:19:35.871Z,3.17
2018-09-11T22:22:03.431Z,3.37
2018-09-11T22:24:31.004Z,2.93
2018-09-11T22:26:58.561Z,3.03
2018-09-11T22:29:26.124Z,3.13
2018-09-11T22:31:53.585Z,3.23
2018-09-11T22:34:21.039Z,3.00
2018-09-11T22:36:48.511Z,3.00
2018-09-11T22:39:15.955Z,3.43
2018-09-11T22:41:43.477Z,3.43
2018-09-11T22:44:10.894Z,3.53
2018-09-11T22:46:38.347Z,2.63
2018-09-11T22:49:05.933Z,3.20
2018-09-11T22:51:33.488Z,3.00
2018-09-11T22:54:01.063Z,2.87
2018-09-11T22:56:28.511Z,2.77
2018-09-11T22:58:56.082Z,2.93
2018-09-11T23:01:23.560Z,3.10
2018-09-11T23:03:51.107Z,3.50
2018-09-11T23:06:20.072Z,3.43
2018-09-11T23:08:47.528Z,3.73
2018-09-11T23:11:15.009Z,3.57
2018-09-11T23:13:42.483Z,3.43
2018-09-11T23:16:09.965Z,3.17
2018-09-11T23:18:37.429Z,3.33
2018-09-11T23:21:05.023Z,3.07
2018-09-11T23:23:32.484Z,3.50
2018-09-11T23:25:59.944Z,3.40
2018-09-11T23:28:28.291Z,3.13
2018-09-11T23:30:57.253Z,3.90
2018-09-11T23:33:24.740Z,3.70
2018-09-11T23:35:52.212Z,3.67
2018-09-11T23:38:19.777Z,3.83
2018-09-11T23:40:47.231Z,3.70
2018-09-11T23:43:14.708Z,4.03
2018-09-11T23:45:42.252Z,3.97
2018-09-11T23:48:09.729Z,3.50
2018-09-11T23:50:37.282Z,3.83
2018-09-11T23:53:04.732Z,3.07
2018-09-11T23:55:32.313Z,3.30
2018-09-11T23:57:59.766Z,3.47
